Search for airport 
image banner adimage banner adimage banner ad
image banner ad

28PN - Harsco

Located in Wormleysburg, United States

ICAO - 28PN, IATA -

Data provided by Airmate  

General information

Coordinates: N40°15'35" W76°54'35"
Elevation is 365 feet MSL.
Magnetic variation is -10° East
View others Airports in Pennsylvania

Operational data

Special qualification required
Current time UTC:
Current local time:
Weather at : KCXY - Capital City ( 7 km )
METAR: KCXY 092256Z 10011KT 10SM CLR 11/05 A2981 RMK AO2 RAB08E22 SLP097 P0000 T01110050 $
View NOTAMs / SUP AIP / TFR affecting this airport [VIEW]
Communications frequencies: [VIEW]

Runways:

Airport contact information

Address: Wormleysburg United States

Satellite view of 28PN